sensor_id;sensor_type;location;lat;lon;timestamp;temperature;humidity
52765;DHT22;38650;44.536;18.664;2024-03-23T00:54:38;9.90;86.50
52765;DHT22;38650;44.536;18.664;2024-03-23T00:57:03;10.00;85.40
52765;DHT22;38650;44.536;18.664;2024-03-23T00:59:29;10.00;83.60
52765;DHT22;38650;44.536;18.664;2024-03-23T01:01:56;10.00;83.70
52765;DHT22;38650;44.536;18.664;2024-03-23T01:04:22;10.00;82.80
52765;DHT22;38650;44.536;18.664;2024-03-23T01:06:47;10.00;82.40
52765;DHT22;38650;44.536;18.664;2024-03-23T01:09:14;9.80;84.90
52765;DHT22;38650;44.536;18.664;2024-03-23T01:11:40;9.70;86.80
52765;DHT22;38650;44.536;18.664;2024-03-23T01:14:06;9.80;87.70
52765;DHT22;38650;44.536;18.664;2024-03-23T01:16:32;9.80;88.60
52765;DHT22;38650;44.536;18.664;2024-03-23T01:18:58;9.80;87.50
52765;DHT22;38650;44.536;18.664;2024-03-23T01:21:24;9.80;88.50
52765;DHT22;38650;44.536;18.664;2024-03-23T01:23:49;9.80;87.20
52765;DHT22;38650;44.536;18.664;2024-03-23T01:26:15;9.80;86.70
52765;DHT22;38650;44.536;18.664;2024-03-23T01:28:41;9.80;84.40
52765;DHT22;38650;44.536;18.664;2024-03-23T01:31:07;9.70;85.50
52765;DHT22;38650;44.536;18.664;2024-03-23T01:33:32;9.60;85.70
52765;DHT22;38650;44.536;18.664;2024-03-23T01:35:58;9.60;85.80
52765;DHT22;38650;44.536;18.664;2024-03-23T01:38:24;9.60;84.70
52765;DHT22;38650;44.536;18.664;2024-03-23T01:40:49;9.50;85.10
52765;DHT22;38650;44.536;18.664;2024-03-23T01:43:21;9.50;84.40
52765;DHT22;38650;44.536;18.664;2024-03-23T01:45:47;9.50;84.40
52765;DHT22;38650;44.536;18.664;2024-03-23T01:48:13;9.50;84.40
52765;DHT22;38650;44.536;18.664;2024-03-23T01:50:39;9.50;84.10
52765;DHT22;38650;44.536;18.664;2024-03-23T01:53:05;9.60;84.20
52765;DHT22;38650;44.536;18.664;2024-03-23T01:55:34;9.50;84.20
52765;DHT22;38650;44.536;18.664;2024-03-23T01:58:00;9.50;85.20
52765;DHT22;38650;44.536;18.664;2024-03-23T02:00:26;9.30;86.40
52765;DHT22;38650;44.536;18.664;2024-03-23T02:02:53;9.30;88.80
52765;DHT22;38650;44.536;18.664;2024-03-23T02:05:19;9.30;88.80
52765;DHT22;38650;44.536;18.664;2024-03-23T02:07:45;9.30;90.50
52765;DHT22;38650;44.536;18.664;2024-03-23T02:10:10;9.20;91.00
52765;DHT22;38650;44.536;18.664;2024-03-23T02:12:39;9.10;91.30
52765;DHT22;38650;44.536;18.664;2024-03-23T02:15:05;9.10;91.10
52765;DHT22;38650;44.536;18.664;2024-03-23T02:17:33;9.20;91.30
52765;DHT22;38650;44.536;18.664;2024-03-23T02:19:59;9.20;91.00
52765;DHT22;38650;44.536;18.664;2024-03-23T02:22:33;9.10;91.00
52765;DHT22;38650;44.536;18.664;2024-03-23T02:24:59;9.10;90.80
52765;DHT22;38650;44.536;18.664;2024-03-23T02:27:25;9.10;90.40
52765;DHT22;38650;44.536;18.664;2024-03-23T02:29:50;9.00;90.10
52765;DHT22;38650;44.536;18.664;2024-03-23T02:32:16;9.00;90.40
52765;DHT22;38650;44.536;18.664;2024-03-23T02:34:42;8.90;90.40
52765;DHT22;38650;44.536;18.664;2024-03-23T02:37:11;8.90;90.40
52765;DHT22;38650;44.536;18.664;2024-03-23T02:39:37;8.90;90.10
52765;DHT22;38650;44.536;18.664;2024-03-23T02:42:03;8.90;90.80
52765;DHT22;38650;44.536;18.664;2024-03-23T02:44:28;8.90;90.80
52765;DHT22;38650;44.536;18.664;2024-03-23T02:46:54;8.90;90.50
52765;DHT22;38650;44.536;18.664;2024-03-23T02:49:20;8.90;90.70
52765;DHT22;38650;44.536;18.664;2024-03-23T02:51:46;8.90;90.70
52765;DHT22;38650;44.536;18.664;2024-03-23T02:54:14;8.90;90.00
52765;DHT22;38650;44.536;18.664;2024-03-23T02:56:39;8.90;90.20
52765;DHT22;38650;44.536;18.664;2024-03-23T02:59:05;8.80;89.50
52765;DHT22;38650;44.536;18.664;2024-03-23T03:01:31;8.80;89.80
52765;DHT22;38650;44.536;18.664;2024-03-23T03:03:56;8.80;90.40
52765;DHT22;38650;44.536;18.664;2024-03-23T03:06:24;8.70;90.90
52765;DHT22;38650;44.536;18.664;2024-03-23T03:08:49;8.70;90.90
52765;DHT22;38650;44.536;18.664;2024-03-23T03:11:15;8.80;91.10
52765;DHT22;38650;44.536;18.664;2024-03-23T03:13:41;8.70;89.80
52765;DHT22;38650;44.536;18.664;2024-03-23T03:16:09;8.70;90.10
52765;DHT22;38650;44.536;18.664;2024-03-23T03:18:35;8.70;90.10
52765;DHT22;38650;44.536;18.664;2024-03-23T03:21:01;8.60;90.50
52765;DHT22;38650;44.536;18.664;2024-03-23T03:23:27;8.60;90.60
52765;DHT22;38650;44.536;18.664;2024-03-23T03:25:52;8.50;91.20
52765;DHT22;38650;44.536;18.664;2024-03-23T03:28:18;8.50;91.60
52765;DHT22;38650;44.536;18.664;2024-03-23T03:30:45;8.50;92.10
52765;DHT22;38650;44.536;18.664;2024-03-23T03:33:11;8.50;92.60
52765;DHT22;38650;44.536;18.664;2024-03-23T03:35:36;8.40;93.10
52765;DHT22;38650;44.536;18.664;2024-03-23T03:38:04;8.40;93.40
52765;DHT22;38650;44.536;18.664;2024-03-23T03:40:29;8.30;93.50
52765;DHT22;38650;44.536;18.664;2024-03-23T03:42:55;8.20;92.40
52765;DHT22;38650;44.536;18.664;2024-03-23T03:45:21;8.20;92.50
52765;DHT22;38650;44.536;18.664;2024-03-23T03:47:47;8.20;92.00
52765;DHT22;38650;44.536;18.664;2024-03-23T03:50:13;8.30;91.60
52765;DHT22;38650;44.536;18.664;2024-03-23T03:52:38;8.30;91.60
52765;DHT22;38650;44.536;18.664;2024-03-23T03:55:12;8.30;91.30
52765;DHT22;38650;44.536;18.664;2024-03-23T03:57:38;8.30;91.00
52765;DHT22;38650;44.536;18.664;2024-03-23T04:00:05;8.30;91.30
52765;DHT22;38650;44.536;18.664;2024-03-23T04:02:30;8.20;92.00
52765;DHT22;38650;44.536;18.664;2024-03-23T04:04:56;8.10;92.60
52765;DHT22;38650;44.536;18.664;2024-03-23T04:07:22;8.10;92.40
52765;DHT22;38650;44.536;18.664;2024-03-23T04:09:48;8.00;92.70
52765;DHT22;38650;44.536;18.664;2024-03-23T04:12:15;7.90;93.50
52765;DHT22;38650;44.536;18.664;2024-03-23T04:14:40;7.90;93.90
52765;DHT22;38650;44.536;18.664;2024-03-23T04:17:07;7.90;93.70
52765;DHT22;38650;44.536;18.664;2024-03-23T04:19:32;8.00;93.40
52765;DHT22;38650;44.536;18.664;2024-03-23T04:21:58;8.00;93.60
52765;DHT22;38650;44.536;18.664;2024-03-23T04:24:24;8.00;93.00
52765;DHT22;38650;44.536;18.664;2024-03-23T04:26:51;8.10;93.00
52765;DHT22;38650;44.536;18.664;2024-03-23T04:29:17;8.00;93.00
52765;DHT22;38650;44.536;18.664;2024-03-23T04:31:43;8.00;92.80
52765;DHT22;38650;44.536;18.664;2024-03-23T04:34:08;8.00;92.70
52765;DHT22;38650;44.536;18.664;2024-03-23T04:36:34;8.00;93.10
52765;DHT22;38650;44.536;18.664;2024-03-23T04:39:00;7.90;93.30
52765;DHT22;38650;44.536;18.664;2024-03-23T04:41:26;7.80;93.80
52765;DHT22;38650;44.536;18.664;2024-03-23T04:43:52;7.90;94.00
52765;DHT22;38650;44.536;18.664;2024-03-23T04:46:17;7.90;93.40
52765;DHT22;38650;44.536;18.664;2024-03-23T04:48:43;7.70;94.40
52765;DHT22;38650;44.536;18.664;2024-03-23T04:51:10;7.60;95.80
52765;DHT22;38650;44.536;18.664;2024-03-23T04:53:38;7.60;96.20
52765;DHT22;38650;44.536;18.664;2024-03-23T04:56:03;7.70;95.20
52765;DHT22;38650;44.536;18.664;2024-03-23T04:58:29;7.80;94.00
52765;DHT22;38650;44.536;18.664;2024-03-23T05:00:58;7.90;93.70
52765;DHT22;38650;44.536;18.664;2024-03-23T05:03:24;7.90;93.50
52765;DHT22;38650;44.536;18.664;2024-03-23T05:05:50;8.00;93.10
52765;DHT22;38650;44.536;18.664;2024-03-23T05:08:16;8.00;93.30
52765;DHT22;38650;44.536;18.664;2024-03-23T05:10:42;7.90;92.60
52765;DHT22;38650;44.536;18.664;2024-03-23T05:13:09;8.00;92.50
52765;DHT22;38650;44.536;18.664;2024-03-23T05:15:34;7.90;92.90
52765;DHT22;38650;44.536;18.664;2024-03-23T05:18:00;7.90;93.10
52765;DHT22;38650;44.536;18.664;2024-03-23T05:20:26;8.00;93.00
52765;DHT22;38650;44.536;18.664;2024-03-23T05:22:52;8.00;92.80
52765;DHT22;38650;44.536;18.664;2024-03-23T05:25:17;8.10;92.70
52765;DHT22;38650;44.536;18.664;2024-03-23T05:27:43;8.20;93.20
52765;DHT22;38650;44.536;18.664;2024-03-23T05:30:09;8.20;92.80
52765;DHT22;38650;44.536;18.664;2024-03-23T05:32:36;8.10;92.60
52765;DHT22;38650;44.536;18.664;2024-03-23T05:35:01;8.10;92.50
52765;DHT22;38650;44.536;18.664;2024-03-23T05:37:27;8.10;93.00
52765;DHT22;38650;44.536;18.664;2024-03-23T05:39:53;8.00;94.00
52765;DHT22;38650;44.536;18.664;2024-03-23T05:42:19;8.00;94.30
52765;DHT22;38650;44.536;18.664;2024-03-23T05:44:45;8.00;94.50
52765;DHT22;38650;44.536;18.664;2024-03-23T05:47:11;8.00;94.60
52765;DHT22;38650;44.536;18.664;2024-03-23T05:49:42;7.90;95.20
52765;DHT22;38650;44.536;18.664;2024-03-23T05:52:08;7.90;95.30
52765;DHT22;38650;44.536;18.664;2024-03-23T05:54:35;8.10;95.30
52765;DHT22;38650;44.536;18.664;2024-03-23T05:57:01;8.30;94.80
52765;DHT22;38650;44.536;18.664;2024-03-23T05:59:27;8.20;95.00
52765;DHT22;38650;44.536;18.664;2024-03-23T06:01:53;8.20;95.00
52765;DHT22;38650;44.536;18.664;2024-03-23T06:04:19;8.10;95.40
52765;DHT22;38650;44.536;18.664;2024-03-23T06:06:45;8.10;95.80
52765;DHT22;38650;44.536;18.664;2024-03-23T06:09:11;8.00;96.70
52765;DHT22;38650;44.536;18.664;2024-03-23T06:11:37;7.90;97.10
52765;DHT22;38650;44.536;18.664;2024-03-23T06:14:02;8.00;97.40
52765;DHT22;38650;44.536;18.664;2024-03-23T06:16:29;8.50;97.20
52765;DHT22;38650;44.536;18.664;2024-03-23T06:18:56;11.60;91.60
52765;DHT22;38650;44.536;18.664;2024-03-23T06:21:22;14.70;55.30
52765;DHT22;38650;44.536;18.664;2024-03-23T06:23:52;16.70;47.90
52765;DHT22;38650;44.536;18.664;2024-03-23T06:26:21;18.40;42.90
52765;DHT22;38650;44.536;18.664;2024-03-23T06:28:47;19.30;41.00
52765;DHT22;38650;44.536;18.664;2024-03-23T06:31:13;20.20;39.20
52765;DHT22;38650;44.536;18.664;2024-03-23T06:33:39;21.60;36.10
52765;DHT22;38650;44.536;18.664;2024-03-23T06:36:07;22.10;34.60
52765;DHT22;38650;44.536;18.664;2024-03-23T06:38:34;22.30;34.40
52765;DHT22;38650;44.536;18.664;2024-03-23T06:41:02;22.60;34.10
52765;DHT22;38650;44.536;18.664;2024-03-23T06:43:28;23.10;33.30
52765;DHT22;38650;44.536;18.664;2024-03-23T06:45:54;23.70;32.10
52765;DHT22;38650;44.536;18.664;2024-03-23T06:48:20;24.20;32.00
52765;DHT22;38650;44.536;18.664;2024-03-23T06:50:47;24.80;31.10
52765;DHT22;38650;44.536;18.664;2024-03-23T06:53:13;25.00;30.30
52765;DHT22;38650;44.536;18.664;2024-03-23T06:55:39;25.00;30.30
52765;DHT22;38650;44.536;18.664;2024-03-23T06:58:05;25.50;30.60
52765;DHT22;38650;44.536;18.664;2024-03-23T07:00:31;26.00;30.00
52765;DHT22;38650;44.536;18.664;2024-03-23T07:02:59;26.60;29.80
52765;DHT22;38650;44.536;18.664;2024-03-23T07:05:25;27.40;29.00
52765;DHT22;38650;44.536;18.664;2024-03-23T07:07:51;27.50;28.70
52765;DHT22;38650;44.536;18.664;2024-03-23T07:10:17;27.70;28.30
52765;DHT22;38650;44.536;18.664;2024-03-23T07:12:43;28.20;28.10
52765;DHT22;38650;44.536;18.664;2024-03-23T07:15:09;28.70;27.80
52765;DHT22;38650;44.536;18.664;2024-03-23T07:17:35;29.20;27.50
52765;DHT22;38650;44.536;18.664;2024-03-23T07:20:01;30.00;27.10
52765;DHT22;38650;44.536;18.664;2024-03-23T07:22:30;30.60;26.70
52765;DHT22;38650;44.536;18.664;2024-03-23T07:24:55;30.80;26.40
52765;DHT22;38650;44.536;18.664;2024-03-23T07:27:21;31.50;26.30
52765;DHT22;38650;44.536;18.664;2024-03-23T07:29:47;32.10;25.80
52765;DHT22;38650;44.536;18.664;2024-03-23T07:32:12;32.60;26.00
52765;DHT22;38650;44.536;18.664;2024-03-23T07:34:38;33.00;25.50
52765;DHT22;38650;44.536;18.664;2024-03-23T07:37:04;33.20;25.10
52765;DHT22;38650;44.536;18.664;2024-03-23T07:39:30;33.00;25.40
52765;DHT22;38650;44.536;18.664;2024-03-23T07:41:58;32.90;25.20
52765;DHT22;38650;44.536;18.664;2024-03-23T07:44:24;33.30;24.70
52765;DHT22;38650;44.536;18.664;2024-03-23T07:46:49;34.00;24.50
52765;DHT22;38650;44.536;18.664;2024-03-23T07:49:15;34.10;24.20
52765;DHT22;38650;44.536;18.664;2024-03-23T07:51:41;34.70;24.00
52765;DHT22;38650;44.536;18.664;2024-03-23T07:54:06;35.20;24.20
52765;DHT22;38650;44.536;18.664;2024-03-23T07:56:32;35.30;23.10
52765;DHT22;38650;44.536;18.664;2024-03-23T07:58:58;35.50;23.60
52765;DHT22;38650;44.536;18.664;2024-03-23T08:01:23;35.20;23.20
52765;DHT22;38650;44.536;18.664;2024-03-23T08:03:50;35.30;23.90
52765;DHT22;38650;44.536;18.664;2024-03-23T08:06:17;35.50;23.70
52765;DHT22;38650;44.536;18.664;2024-03-23T08:08:45;35.80;23.70
52765;DHT22;38650;44.536;18.664;2024-03-23T08:11:11;36.10;23.40
52765;DHT22;38650;44.536;18.664;2024-03-23T08:13:40;36.40;23.40
52765;DHT22;38650;44.536;18.664;2024-03-23T08:16:05;36.50;22.20
52765;DHT22;38650;44.536;18.664;2024-03-23T08:18:31;36.60;23.20
52765;DHT22;38650;44.536;18.664;2024-03-23T08:21:01;36.90;22.80
52765;DHT22;38650;44.536;18.664;2024-03-23T08:23:28;37.00;22.30
52765;DHT22;38650;44.536;18.664;2024-03-23T08:26:00;36.40;21.80
52765;DHT22;38650;44.536;18.664;2024-03-23T08:28:27;35.60;22.10
52765;DHT22;38650;44.536;18.664;2024-03-23T08:30:53;35.70;22.80
52765;DHT22;38650;44.536;18.664;2024-03-23T08:33:20;36.20;23.10
52765;DHT22;38650;44.536;18.664;2024-03-23T08:35:56;36.40;22.00
52765;DHT22;38650;44.536;18.664;2024-03-23T08:38:22;36.50;21.90
52765;DHT22;38650;44.536;18.664;2024-03-23T08:40:56;36.60;22.60
52765;DHT22;38650;44.536;18.664;2024-03-23T08:43:21;36.40;21.90
52765;DHT22;38650;44.536;18.664;2024-03-23T08:45:47;36.20;21.90
52765;DHT22;38650;44.536;18.664;2024-03-23T08:48:12;36.20;21.90
52765;DHT22;38650;44.536;18.664;2024-03-23T08:50:38;36.30;21.50
52765;DHT22;38650;44.536;18.664;2024-03-23T08:53:04;36.20;21.80
52765;DHT22;38650;44.536;18.664;2024-03-23T08:55:30;35.90;22.10
52765;DHT22;38650;44.536;18.664;2024-03-23T08:57:55;35.60;21.60
52765;DHT22;38650;44.536;18.664;2024-03-23T09:00:21;35.30;23.10
52765;DHT22;38650;44.536;18.664;2024-03-23T09:02:48;34.80;22.30
52765;DHT22;38650;44.536;18.664;2024-03-23T09:05:13;34.50;23.90
52765;DHT22;38650;44.536;18.664;2024-03-23T09:07:39;33.80;24.10
52765;DHT22;38650;44.536;18.664;2024-03-23T09:10:06;33.40;24.10
52765;DHT22;38650;44.536;18.664;2024-03-23T09:12:31;32.90;22.70
52765;DHT22;38650;44.536;18.664;2024-03-23T09:14:57;32.60;23.40
52765;DHT22;38650;44.536;18.664;2024-03-23T09:17:23;31.80;23.90
52765;DHT22;38650;44.536;18.664;2024-03-23T09:19:48;31.50;23.80
52765;DHT22;38650;44.536;18.664;2024-03-23T09:22:14;31.20;24.70
52765;DHT22;38650;44.536;18.664;2024-03-23T09:24:40;31.00;24.60
52765;DHT22;38650;44.536;18.664;2024-03-23T09:27:06;31.00;23.70
52765;DHT22;38650;44.536;18.664;2024-03-23T09:29:31;31.20;23.50
52765;DHT22;38650;44.536;18.664;2024-03-23T09:31:57;31.20;23.90
52765;DHT22;38650;44.536;18.664;2024-03-23T09:34:23;31.20;24.80
52765;DHT22;38650;44.536;18.664;2024-03-23T09:36:52;31.40;24.10
52765;DHT22;38650;44.536;18.664;2024-03-23T09:39:18;31.50;24.10
52765;DHT22;38650;44.536;18.664;2024-03-23T09:41:45;31.30;23.90
52765;DHT22;38650;44.536;18.664;2024-03-23T09:44:11;31.30;24.40
52765;DHT22;38650;44.536;18.664;2024-03-23T09:46:36;31.40;24.40
52765;DHT22;38650;44.536;18.664;2024-03-23T09:49:07;31.40;23.50
52765;DHT22;38650;44.536;18.664;2024-03-23T09:51:36;31.40;24.10
52765;DHT22;38650;44.536;18.664;2024-03-23T09:54:02;31.20;25.30
52765;DHT22;38650;44.536;18.664;2024-03-23T09:56:27;30.80;24.50
52765;DHT22;38650;44.536;18.664;2024-03-23T09:59:03;30.60;24.80
52765;DHT22;38650;44.536;18.664;2024-03-23T10:01:32;30.60;25.80
52765;DHT22;38650;44.536;18.664;2024-03-23T10:03:57;30.80;25.10
52765;DHT22;38650;44.536;18.664;2024-03-23T10:06:23;31.00;25.60
52765;DHT22;38650;44.536;18.664;2024-03-23T10:08:52;31.20;22.60
52765;DHT22;38650;44.536;18.664;2024-03-23T10:11:19;31.20;24.20
52765;DHT22;38650;44.536;18.664;2024-03-23T10:13:46;31.30;25.10
52765;DHT22;38650;44.536;18.664;2024-03-23T10:16:12;31.40;23.80
52765;DHT22;38650;44.536;18.664;2024-03-23T10:18:46;31.30;23.20
52765;DHT22;38650;44.536;18.664;2024-03-23T10:21:13;30.80;23.90
52765;DHT22;38650;44.536;18.664;2024-03-23T10:23:41;30.80;23.80
52765;DHT22;38650;44.536;18.664;2024-03-23T10:26:23;31.00;23.30
52765;DHT22;38650;44.536;18.664;2024-03-23T10:29:00;31.20;23.20
52765;DHT22;38650;44.536;18.664;2024-03-23T10:31:33;31.00;22.50
52765;DHT22;38650;44.536;18.664;2024-03-23T10:34:02;31.10;22.80
52765;DHT22;38650;44.536;18.664;2024-03-23T10:36:28;30.60;23.00
52765;DHT22;38650;44.536;18.664;2024-03-23T10:38:54;30.40;24.70
52765;DHT22;38650;44.536;18.664;2024-03-23T10:41:20;30.30;24.00
52765;DHT22;38650;44.536;18.664;2024-03-23T10:43:47;30.50;23.80
52765;DHT22;38650;44.536;18.664;2024-03-23T10:46:13;30.70;24.20
52765;DHT22;38650;44.536;18.664;2024-03-23T10:48:39;31.00;25.80
52765;DHT22;38650;44.536;18.664;2024-03-23T10:51:07;30.90;22.30
52765;DHT22;38650;44.536;18.664;2024-03-23T10:53:34;30.60;27.40
52765;DHT22;38650;44.536;18.664;2024-03-23T10:56:00;30.70;23.60
52765;DHT22;38650;44.536;18.664;2024-03-23T10:58:39;30.90;22.90
52765;DHT22;38650;44.536;18.664;2024-03-23T11:01:05;30.80;24.10
52765;DHT22;38650;44.536;18.664;2024-03-23T11:03:34;30.60;25.00
52765;DHT22;38650;44.536;18.664;2024-03-23T11:06:01;30.40;24.90
52765;DHT22;38650;44.536;18.664;2024-03-23T11:08:37;30.30;24.70
52765;DHT22;38650;44.536;18.664;2024-03-23T11:11:19;30.50;23.40
52765;DHT22;38650;44.536;18.664;2024-03-23T11:13:49;30.50;23.80
52765;DHT22;38650;44.536;18.664;2024-03-23T11:16:15;30.60;24.00
52765;DHT22;38650;44.536;18.664;2024-03-23T11:18:42;30.70;26.80
52765;DHT22;38650;44.536;18.664;2024-03-23T11:21:09;30.70;25.30
52765;DHT22;38650;44.536;18.664;2024-03-23T11:23:34;30.80;25.00
52765;DHT22;38650;44.536;18.664;2024-03-23T11:26:00;30.60;22.80
52765;DHT22;38650;44.536;18.664;2024-03-23T11:28:26;30.80;24.20
52765;DHT22;38650;44.536;18.664;2024-03-23T11:30:52;30.80;23.40
52765;DHT22;38650;44.536;18.664;2024-03-23T11:33:17;31.10;23.40
52765;DHT22;38650;44.536;18.664;2024-03-23T11:35:44;31.30;23.50
52765;DHT22;38650;44.536;18.664;2024-03-23T11:38:17;31.00;22.90
52765;DHT22;38650;44.536;18.664;2024-03-23T11:40:47;30.70;24.50
52765;DHT22;38650;44.536;18.664;2024-03-23T11:43:18;30.50;21.60
52765;DHT22;38650;44.536;18.664;2024-03-23T11:45:51;30.40;22.80
52765;DHT22;38650;44.536;18.664;2024-03-23T11:48:20;30.70;21.80
52765;DHT22;38650;44.536;18.664;2024-03-23T11:50:50;31.00;22.70
52765;DHT22;38650;44.536;18.664;2024-03-23T11:53:18;31.20;22.90
52765;DHT22;38650;44.536;18.664;2024-03-23T11:58:17;30.80;23.40
52765;DHT22;38650;44.536;18.664;2024-03-23T12:00:59;30.70;22.80
52765;DHT22;38650;44.536;18.664;2024-03-23T12:03:25;30.60;22.60
52765;DHT22;38650;44.536;18.664;2024-03-23T12:05:53;31.10;20.90
52765;DHT22;38650;44.536;18.664;2024-03-23T12:08:23;31.40;20.80
52765;DHT22;38650;44.536;18.664;2024-03-23T12:10:53;31.00;21.10
52765;DHT22;38650;44.536;18.664;2024-03-23T12:13:29;31.00;21.20
52765;DHT22;38650;44.536;18.664;2024-03-23T12:15:55;31.00;21.80
52765;DHT22;38650;44.536;18.664;2024-03-23T12:18:34;31.00;21.50
52765;DHT22;38650;44.536;18.664;2024-03-23T12:21:00;30.60;22.40
52765;DHT22;38650;44.536;18.664;2024-03-23T12:23:25;30.10;22.40
52765;DHT22;38650;44.536;18.664;2024-03-23T12:25:51;29.90;21.90
52765;DHT22;38650;44.536;18.664;2024-03-23T12:28:17;30.10;23.60
52765;DHT22;38650;44.536;18.664;2024-03-23T12:30:43;30.40;22.00
52765;DHT22;38650;44.536;18.664;2024-03-23T12:33:08;30.50;23.80
52765;DHT22;38650;44.536;18.664;2024-03-23T12:35:34;30.40;22.70
52765;DHT22;38650;44.536;18.664;2024-03-23T12:38:00;30.00;21.40
52765;DHT22;38650;44.536;18.664;2024-03-23T12:40:26;30.00;21.80
52765;DHT22;38650;44.536;18.664;2024-03-23T12:42:53;30.50;21.90
52765;DHT22;38650;44.536;18.664;2024-03-23T12:45:19;30.80;23.10
52765;DHT22;38650;44.536;18.664;2024-03-23T12:47:45;30.90;21.90
52765;DHT22;38650;44.536;18.664;2024-03-23T12:50:11;30.80;22.90
52765;DHT22;38650;44.536;18.664;2024-03-23T12:52:37;30.60;22.30
52765;DHT22;38650;44.536;18.664;2024-03-23T12:55:04;30.60;21.40
52765;DHT22;38650;44.536;18.664;2024-03-23T12:57:32;30.80;22.50
52765;DHT22;38650;44.536;18.664;2024-03-23T12:59:59;31.20;21.50
52765;DHT22;38650;44.536;18.664;2024-03-23T13:02:25;31.40;21.60
52765;DHT22;38650;44.536;18.664;2024-03-23T13:04:52;31.30;22.80
52765;DHT22;38650;44.536;18.664;2024-03-23T13:07:20;30.80;22.70
52765;DHT22;38650;44.536;18.664;2024-03-23T13:09:46;30.80;22.70
52765;DHT22;38650;44.536;18.664;2024-03-23T13:12:12;31.30;21.80
52765;DHT22;38650;44.536;18.664;2024-03-23T13:14:38;31.50;21.40
52765;DHT22;38650;44.536;18.664;2024-03-23T13:17:04;31.20;21.70
52765;DHT22;38650;44.536;18.664;2024-03-23T13:19:30;30.80;21.70
52765;DHT22;38650;44.536;18.664;2024-03-23T13:21:57;31.20;21.70
52765;DHT22;38650;44.536;18.664;2024-03-23T13:24:24;31.30;22.10
52765;DHT22;38650;44.536;18.664;2024-03-23T13:26:53;31.20;21.40
52765;DHT22;38650;44.536;18.664;2024-03-23T13:29:20;31.10;21.30
52765;DHT22;38650;44.536;18.664;2024-03-23T13:31:50;30.70;21.00
52765;DHT22;38650;44.536;18.664;2024-03-23T13:34:16;30.50;21.00
52765;DHT22;38650;44.536;18.664;2024-03-23T13:36:46;30.30;20.90
52765;DHT22;38650;44.536;18.664;2024-03-23T13:39:12;30.30;22.20
52765;DHT22;38650;44.536;18.664;2024-03-23T13:41:45;30.50;21.40
52765;DHT22;38650;44.536;18.664;2024-03-23T13:44:12;30.60;21.20
52765;DHT22;38650;44.536;18.664;2024-03-23T13:46:39;30.80;21.40
52765;DHT22;38650;44.536;18.664;2024-03-23T13:49:05;30.50;21.40
52765;DHT22;38650;44.536;18.664;2024-03-23T13:51:32;30.50;21.00
52765;DHT22;38650;44.536;18.664;2024-03-23T13:53:57;30.30;21.10
52765;DHT22;38650;44.536;18.664;2024-03-23T13:56:29;30.30;21.30
52765;DHT22;38650;44.536;18.664;2024-03-23T13:58:56;30.40;21.10
52765;DHT22;38650;44.536;18.664;2024-03-23T14:01:22;29.90;21.30
52765;DHT22;38650;44.536;18.664;2024-03-23T14:03:48;30.00;21.70
52765;DHT22;38650;44.536;18.664;2024-03-23T14:06:14;30.20;21.80
52765;DHT22;38650;44.536;18.664;2024-03-23T14:08:39;29.90;22.40
52765;DHT22;38650;44.536;18.664;2024-03-23T14:11:08;29.80;22.10
52765;DHT22;38650;44.536;18.664;2024-03-23T14:13:34;29.90;21.80
52765;DHT22;38650;44.536;18.664;2024-03-23T14:16:01;29.90;21.60
52765;DHT22;38650;44.536;18.664;2024-03-23T14:18:27;29.80;21.70
52765;DHT22;38650;44.536;18.664;2024-03-23T14:20:57;29.60;21.40
52765;DHT22;38650;44.536;18.664;2024-03-23T14:23:27;29.30;21.70
52765;DHT22;38650;44.536;18.664;2024-03-23T14:25:56;29.20;22.00
52765;DHT22;38650;44.536;18.664;2024-03-23T14:28:22;29.10;22.00
52765;DHT22;38650;44.536;18.664;2024-03-23T14:30:55;29.00;22.20
52765;DHT22;38650;44.536;18.664;2024-03-23T14:33:21;28.90;21.90
52765;DHT22;38650;44.536;18.664;2024-03-23T14:35:53;28.50;22.20
52765;DHT22;38650;44.536;18.664;2024-03-23T14:38:19;28.10;22.80
52765;DHT22;38650;44.536;18.664;2024-03-23T14:40:48;27.90;22.60
52765;DHT22;38650;44.536;18.664;2024-03-23T14:43:15;27.90;23.00
52765;DHT22;38650;44.536;18.664;2024-03-23T14:46:06;28.10;22.90
52765;DHT22;38650;44.536;18.664;2024-03-23T14:48:32;28.40;22.70
52765;DHT22;38650;44.536;18.664;2024-03-23T14:50:58;28.20;22.60
52765;DHT22;38650;44.536;18.664;2024-03-23T14:53:25;28.10;23.10
52765;DHT22;38650;44.536;18.664;2024-03-23T14:55:53;28.20;23.00
52765;DHT22;38650;44.536;18.664;2024-03-23T14:58:19;28.30;22.80
52765;DHT22;38650;44.536;18.664;2024-03-23T15:00:45;28.20;23.30
52765;DHT22;38650;44.536;18.664;2024-03-23T15:03:10;28.00;23.10
52765;DHT22;38650;44.536;18.664;2024-03-23T15:05:36;28.00;23.40
52765;DHT22;38650;44.536;18.664;2024-03-23T15:08:02;27.80;24.00
52765;DHT22;38650;44.536;18.664;2024-03-23T15:10:29;27.70;23.60
52765;DHT22;38650;44.536;18.664;2024-03-23T15:12:54;27.60;23.90
52765;DHT22;38650;44.536;18.664;2024-03-23T15:15:20;27.50;23.90
52765;DHT22;38650;44.536;18.664;2024-03-23T15:17:46;27.30;23.90
52765;DHT22;38650;44.536;18.664;2024-03-23T15:20:11;27.40;24.00
52765;DHT22;38650;44.536;18.664;2024-03-23T15:22:38;27.20;23.90
52765;DHT22;38650;44.536;18.664;2024-03-23T15:25:04;27.00;24.20
52765;DHT22;38650;44.536;18.664;2024-03-23T15:27:29;27.00;24.30
52765;DHT22;38650;44.536;18.664;2024-03-23T15:29:58;27.00;24.00
52765;DHT22;38650;44.536;18.664;2024-03-23T15:32:24;27.00;24.20
52765;DHT22;38650;44.536;18.664;2024-03-23T15:34:49;27.00;24.30
52765;DHT22;38650;44.536;18.664;2024-03-23T15:37:15;26.80;24.30
52765;DHT22;38650;44.536;18.664;2024-03-23T15:39:41;26.60;24.50
52765;DHT22;38650;44.536;18.664;2024-03-23T15:42:07;26.50;24.80
52765;DHT22;38650;44.536;18.664;2024-03-23T15:44:33;26.20;24.90
52765;DHT22;38650;44.536;18.664;2024-03-23T15:46:59;25.90;25.20
52765;DHT22;38650;44.536;18.664;2024-03-23T15:49:24;25.60;25.50
52765;DHT22;38650;44.536;18.664;2024-03-23T15:51:50;25.30;25.70
52765;DHT22;38650;44.536;18.664;2024-03-23T15:54:16;25.40;25.60
52765;DHT22;38650;44.536;18.664;2024-03-23T15:56:41;25.50;25.60
52765;DHT22;38650;44.536;18.664;2024-03-23T15:59:07;25.40;25.90
52765;DHT22;38650;44.536;18.664;2024-03-23T16:01:33;25.30;25.90
52765;DHT22;38650;44.536;18.664;2024-03-23T16:04:01;25.30;26.20
52765;DHT22;38650;44.536;18.664;2024-03-23T16:06:27;25.20;25.90
52765;DHT22;38650;44.536;18.664;2024-03-23T16:08:52;25.10;25.90
52765;DHT22;38650;44.536;18.664;2024-03-23T16:11:18;25.00;26.20
52765;DHT22;38650;44.536;18.664;2024-03-23T16:13:44;24.80;26.30